createdAt,value
2023-07-03T00:00:53.652Z,19.50
2023-07-03T00:03:39.009Z,19.44
2023-07-03T00:06:23.641Z,19.41
2023-07-03T00:09:09.712Z,19.40
2023-07-03T00:11:54.996Z,19.35
2023-07-03T00:14:39.790Z,19.29
2023-07-03T00:17:24.735Z,19.25
2023-07-03T00:20:16.852Z,19.25
2023-07-03T00:23:02.203Z,19.23
2023-07-03T00:25:47.084Z,19.19
2023-07-03T00:28:32.060Z,19.14
2023-07-03T00:31:17.204Z,19.08
2023-07-03T00:34:02.286Z,18.98
2023-07-03T00:36:47.985Z,18.89
2023-07-03T00:39:32.917Z,18.80
2023-07-03T00:42:17.979Z,18.72
2023-07-03T00:45:08.031Z,18.65
2023-07-03T00:47:54.312Z,18.64
2023-07-03T00:50:39.032Z,18.62
2023-07-03T00:53:23.697Z,18.63
2023-07-03T00:56:08.791Z,18.65
2023-07-03T00:58:53.746Z,18.67
2023-07-03T01:01:45.924Z,18.64
2023-07-03T01:04:41.569Z,18.58
2023-07-03T01:07:32.334Z,18.54
2023-07-03T01:10:23.351Z,18.50
2023-07-03T01:13:13.996Z,18.44
2023-07-03T01:15:59.955Z,18.40
2023-07-03T01:18:47.277Z,18.34
2023-07-03T01:21:43.637Z,18.28
2023-07-03T01:24:44.993Z,18.19
2023-07-03T01:27:34.988Z,18.06
2023-07-03T01:30:21.751Z,17.91
2023-07-03T01:33:08.493Z,17.76
2023-07-03T01:35:54.597Z,17.63
2023-07-03T01:38:44.488Z,17.48
2023-07-03T01:41:30.136Z,17.35
2023-07-03T01:44:15.267Z,17.24
2023-07-03T01:47:11.780Z,17.14
2023-07-03T01:49:57.046Z,17.06
2023-07-03T01:52:52.211Z,16.99
2023-07-03T01:55:51.826Z,16.90
2023-07-03T01:58:47.168Z,16.82
2023-07-03T02:01:45.528Z,16.81
2023-07-03T02:04:52.840Z,16.82
2023-07-03T02:07:41.014Z,16.80
2023-07-03T02:10:26.197Z,16.82
2023-07-03T02:13:12.069Z,16.83
2023-07-03T02:15:57.188Z,16.85
2023-07-03T02:18:43.159Z,16.91
2023-07-03T02:21:29.485Z,17.01
2023-07-03T02:24:14.364Z,17.11
2023-07-03T02:27:00.209Z,17.20
2023-07-03T02:29:45.021Z,17.31
2023-07-03T02:32:39.343Z,17.45
2023-07-03T02:35:24.795Z,17.55
2023-07-03T02:38:10.517Z,17.64
2023-07-03T02:40:57.693Z,17.77
2023-07-03T02:43:42.585Z,17.96
2023-07-03T02:46:27.586Z,18.14
2023-07-03T02:49:12.630Z,18.32
2023-07-03T02:52:01.033Z,18.48
2023-07-03T02:54:49.555Z,18.46
2023-07-03T02:57:34.593Z,18.57
2023-07-03T03:00:19.664Z,18.83
2023-07-03T03:03:04.856Z,19.17
2023-07-03T03:05:50.342Z,19.57
2023-07-03T03:08:35.528Z,19.65
2023-07-03T03:11:20.400Z,19.55
2023-07-03T03:14:08.324Z,19.52
2023-07-03T03:16:54.353Z,19.46
2023-07-03T03:19:39.572Z,19.37
2023-07-03T03:22:24.124Z,19.31
2023-07-03T03:25:09.223Z,19.20
2023-07-03T03:27:55.942Z,19.20
2023-07-03T03:30:40.631Z,19.26
2023-07-03T03:33:25.581Z,19.31
2023-07-03T03:36:10.682Z,19.37
2023-07-03T03:38:55.517Z,19.44
2023-07-03T03:41:40.699Z,19.57
2023-07-03T03:44:27.264Z,19.65
2023-07-03T03:47:11.829Z,19.63
2023-07-03T03:49:56.823Z,19.62
2023-07-03T03:52:42.241Z,19.61
2023-07-03T03:55:28.096Z,19.63
2023-07-03T03:58:15.976Z,19.71
2023-07-03T04:01:01.492Z,19.84
2023-07-03T04:03:47.153Z,19.92
2023-07-03T04:06:32.126Z,20.13
2023-07-03T04:09:17.009Z,20.35
2023-07-03T04:12:01.794Z,20.52
2023-07-03T04:14:46.547Z,20.89
2023-07-03T04:17:31.231Z,21.46
2023-07-03T04:20:18.228Z,22.04
2023-07-03T04:23:03.094Z,22.27
2023-07-03T04:25:49.447Z,21.97
2023-07-03T04:28:34.593Z,21.84
2023-07-03T04:31:19.866Z,21.91
2023-07-03T04:34:06.336Z,21.99
2023-07-03T04:36:51.192Z,21.98
2023-07-03T04:39:36.050Z,21.82
2023-07-03T04:42:21.105Z,21.39
2023-07-03T04:45:08.297Z,21.11
2023-07-03T04:47:53.577Z,20.86
2023-07-03T04:50:38.443Z,20.61
2023-07-03T04:53:23.774Z,20.41
2023-07-03T04:56:10.502Z,20.30
2023-07-03T04:58:55.401Z,20.31
2023-07-03T05:01:43.340Z,20.41
2023-07-03T05:04:28.599Z,20.46
2023-07-03T05:07:14.379Z,20.56
2023-07-03T05:09:58.884Z,20.58
2023-07-03T05:12:45.295Z,20.53
2023-07-03T05:15:31.587Z,20.44
2023-07-03T05:18:16.770Z,20.66
2023-07-03T05:21:01.957Z,21.21
2023-07-03T05:23:47.352Z,21.74
2023-07-03T05:26:32.033Z,22.04
2023-07-03T05:29:17.116Z,22.14
2023-07-03T05:32:03.275Z,22.51
2023-07-03T05:34:47.856Z,22.50
2023-07-03T05:37:33.702Z,22.30
2023-07-03T05:40:18.921Z,22.43
2023-07-03T05:43:03.417Z,22.66
2023-07-03T05:45:49.999Z,22.69
2023-07-03T05:48:34.781Z,22.86
2023-07-03T05:51:19.406Z,23.06
2023-07-03T05:54:06.826Z,23.03
2023-07-03T05:56:59.344Z,23.02
2023-07-03T05:59:44.316Z,22.71
2023-07-03T06:02:29.331Z,22.60
2023-07-03T06:05:14.848Z,22.73
2023-07-03T06:08:00.097Z,22.80
2023-07-03T06:10:46.007Z,23.19
2023-07-03T06:13:30.571Z,23.49
2023-07-03T06:16:16.883Z,23.80
2023-07-03T06:19:01.829Z,23.98
2023-07-03T06:21:46.811Z,24.34
2023-07-03T06:24:32.386Z,24.56
2023-07-03T06:27:17.205Z,24.16
2023-07-03T06:30:03.820Z,23.99
2023-07-03T06:32:48.706Z,23.96
2023-07-03T06:35:34.960Z,24.17
2023-07-03T06:38:19.873Z,24.41
2023-07-03T06:41:04.328Z,24.39
2023-07-03T06:43:50.200Z,24.70
2023-07-03T06:46:34.855Z,24.76
2023-07-03T06:49:22.959Z,24.93
2023-07-03T06:52:10.265Z,24.76
2023-07-03T06:54:55.215Z,24.46
2023-07-03T06:57:40.194Z,24.56
2023-07-03T07:00:25.523Z,24.59
2023-07-03T07:03:10.478Z,24.72
2023-07-03T07:05:56.417Z,25.12
2023-07-03T07:08:42.694Z,25.00
2023-07-03T07:11:29.889Z,24.78
2023-07-03T07:14:14.982Z,24.58
2023-07-03T07:16:59.824Z,24.57
2023-07-03T07:19:45.901Z,24.86
2023-07-03T07:22:30.476Z,24.84
2023-07-03T07:25:15.136Z,25.16
2023-07-03T07:28:00.422Z,24.76
2023-07-03T07:30:46.626Z,24.95
2023-07-03T07:33:31.308Z,25.00
2023-07-03T07:36:19.249Z,25.21
2023-07-03T07:39:03.977Z,25.48
2023-07-03T07:41:51.497Z,25.42
2023-07-03T07:44:36.431Z,25.35
2023-07-03T07:47:21.508Z,25.27
2023-07-03T07:50:07.127Z,25.24
2023-07-03T07:52:51.910Z,25.46
2023-07-03T07:55:37.335Z,25.80
2023-07-03T07:58:22.002Z,25.97
2023-07-03T08:01:07.047Z,25.83
2023-07-03T08:03:52.085Z,26.15
2023-07-03T08:06:36.830Z,26.65
2023-07-03T08:09:23.588Z,26.02
2023-07-03T08:12:09.003Z,25.79
2023-07-03T08:14:53.984Z,25.65
2023-07-03T08:17:39.224Z,26.17
2023-07-03T08:20:24.112Z,26.95
2023-07-03T08:23:09.266Z,27.27
2023-07-03T08:25:55.504Z,26.77
2023-07-03T08:28:40.223Z,26.60
2023-07-03T08:31:25.579Z,26.21
2023-07-03T08:34:11.123Z,25.68
2023-07-03T08:39:44.302Z,25.75
2023-07-03T08:42:35.651Z,26.10
2023-07-03T08:45:23.212Z,26.14
2023-07-03T08:48:14.341Z,25.82
2023-07-03T08:51:02.819Z,25.79
2023-07-03T08:53:55.210Z,26.11
2023-07-03T08:56:41.057Z,26.16
2023-07-03T08:59:26.100Z,26.57
2023-07-03T09:02:28.352Z,26.32
2023-07-03T09:05:38.593Z,25.74
2023-07-03T09:08:36.630Z,26.35
2023-07-03T09:11:23.781Z,26.69
2023-07-03T09:14:13.230Z,27.22
2023-07-03T09:16:58.085Z,27.34
2023-07-03T09:19:47.797Z,26.92
2023-07-03T09:22:42.062Z,26.72
2023-07-03T09:25:44.780Z,26.81
2023-07-03T09:28:32.575Z,26.33
2023-07-03T09:31:17.967Z,26.54
2023-07-03T09:34:03.261Z,26.88
2023-07-03T09:36:59.384Z,27.13
2023-07-03T09:39:47.075Z,27.15
2023-07-03T09:42:32.871Z,27.37
2023-07-03T09:45:20.348Z,27.23
2023-07-03T09:48:19.011Z,27.55
2023-07-03T09:51:25.411Z,27.44
2023-07-03T09:54:22.182Z,27.38
2023-07-03T09:57:17.909Z,27.25
2023-07-03T10:00:15.324Z,27.42
2023-07-03T10:08:42.766Z,28.50
2023-07-03T10:11:47.012Z,28.25
2023-07-03T10:15:19.008Z,27.82
2023-07-03T10:18:12.411Z,28.03
2023-07-03T10:20:59.297Z,27.49
2023-07-03T10:23:45.438Z,27.99
2023-07-03T10:26:43.389Z,27.66
2023-07-03T10:29:37.983Z,28.44
2023-07-03T10:32:27.742Z,28.25
2023-07-03T10:35:18.672Z,28.15
2023-07-03T10:38:33.112Z,28.67
2023-07-03T10:41:20.340Z,28.82
2023-07-03T10:44:11.104Z,28.62
2023-07-03T10:47:05.565Z,29.10
2023-07-03T10:49:50.840Z,29.55
2023-07-03T10:52:47.174Z,29.21
2023-07-03T10:55:40.883Z,29.65
2023-07-03T10:58:44.827Z,30.17
2023-07-03T11:01:39.709Z,30.55
2023-07-03T11:04:53.516Z,31.09
2023-07-03T11:07:56.007Z,30.20
2023-07-03T11:10:47.108Z,30.40
2023-07-03T11:13:52.146Z,30.36
2023-07-03T11:17:00.255Z,30.18
2023-07-03T11:20:13.021Z,29.53
2023-07-03T11:23:26.035Z,29.66
2023-07-03T11:29:09.267Z,30.63
2023-07-03T11:31:56.466Z,30.07
2023-07-03T11:40:54.063Z,29.50
2023-07-03T11:43:47.782Z,29.26
2023-07-03T11:46:34.033Z,28.82
2023-07-03T11:49:18.925Z,28.38
2023-07-03T11:52:06.100Z,28.18
2023-07-03T11:55:14.894Z,28.09
2023-07-03T11:58:19.944Z,27.70
2023-07-03T12:01:26.212Z,27.19
2023-07-03T12:04:11.265Z,27.30
2023-07-03T12:06:55.865Z,28.36
2023-07-03T12:09:40.937Z,29.33
2023-07-03T12:12:28.265Z,30.74
2023-07-03T12:15:13.865Z,29.73
2023-07-03T12:18:03.724Z,29.68
2023-07-03T12:20:48.514Z,29.19
2023-07-03T12:23:42.233Z,30.22
2023-07-03T12:26:27.268Z,31.17
2023-07-03T12:29:12.320Z,31.33
2023-07-03T12:32:05.745Z,30.96
2023-07-03T12:34:50.608Z,31.27
2023-07-03T12:37:35.548Z,31.29
2023-07-03T12:40:22.208Z,31.69
2023-07-03T12:43:09.061Z,30.85
2023-07-03T12:45:55.255Z,29.98
2023-07-03T12:48:40.216Z,30.51
2023-07-03T12:51:24.726Z,31.54
2023-07-03T12:54:12.613Z,32.23
2023-07-03T12:56:58.303Z,32.69
2023-07-03T12:59:52.614Z,32.72
2023-07-03T13:02:37.504Z,32.48
2023-07-03T13:05:23.794Z,32.18
2023-07-03T13:08:15.722Z,32.21
2023-07-03T13:11:03.869Z,32.01
2023-07-03T13:14:05.652Z,30.97
2023-07-03T13:16:53.740Z,30.48
2023-07-03T13:19:38.554Z,30.61
2023-07-03T13:22:26.147Z,31.44
2023-07-03T13:25:12.088Z,32.08
2023-07-03T13:27:57.638Z,32.69
2023-07-03T13:30:42.459Z,32.46
2023-07-03T13:33:30.106Z,32.99
2023-07-03T13:36:26.562Z,33.73
2023-07-03T13:39:17.020Z,33.55
2023-07-03T13:42:01.747Z,33.75
2023-07-03T13:44:46.769Z,33.19
2023-07-03T13:47:31.381Z,32.46
2023-07-03T13:50:16.494Z,30.85
2023-07-03T13:53:01.401Z,30.51
2023-07-03T13:55:46.204Z,31.44
2023-07-03T13:58:32.314Z,31.84
2023-07-03T14:01:26.335Z,32.02
2023-07-03T14:04:12.836Z,32.87
2023-07-03T14:06:57.803Z,33.59
2023-07-03T14:09:42.816Z,33.30
2023-07-03T14:12:27.287Z,33.16
2023-07-03T14:15:15.325Z,33.43
2023-07-03T14:18:00.563Z,33.50
2023-07-03T14:20:49.503Z,33.30
2023-07-03T14:23:34.412Z,33.20
2023-07-03T14:26:19.645Z,32.59
2023-07-03T14:29:04.459Z,30.93
2023-07-03T14:31:50.698Z,31.18
2023-07-03T14:34:35.443Z,31.26
2023-07-03T14:37:20.599Z,29.73
2023-07-03T14:40:06.441Z,30.14
2023-07-03T14:42:51.299Z,30.42
2023-07-03T14:45:36.319Z,30.19
2023-07-03T14:48:21.296Z,30.44
2023-07-03T14:51:06.352Z,30.66
2023-07-03T14:53:50.827Z,31.13
2023-07-03T14:56:35.480Z,31.16
2023-07-03T14:59:20.043Z,31.41
2023-07-03T15:02:06.225Z,31.39
2023-07-03T15:04:51.336Z,31.67
2023-07-03T15:07:36.366Z,31.39
2023-07-03T15:10:21.207Z,30.93
2023-07-03T15:13:06.248Z,31.23
2023-07-03T15:15:51.630Z,31.65
2023-07-03T15:18:36.670Z,31.41
2023-07-03T15:21:21.730Z,30.51
2023-07-03T15:24:08.687Z,29.90
2023-07-03T15:26:53.277Z,30.51
2023-07-03T15:29:38.320Z,31.32
2023-07-03T15:32:23.183Z,31.48
2023-07-03T15:35:08.391Z,31.40
2023-07-03T15:37:52.841Z,31.07
2023-07-03T15:40:37.470Z,30.95
2023-07-03T15:43:22.892Z,31.33
2023-07-03T15:46:18.598Z,31.58
2023-07-03T15:49:03.256Z,31.48
2023-07-03T15:51:48.963Z,31.60
2023-07-03T15:54:35.294Z,32.05
2023-07-03T15:57:22.285Z,32.19
2023-07-03T16:00:08.277Z,32.14
2023-07-03T16:02:52.698Z,31.72
2023-07-03T16:05:37.697Z,31.52
2023-07-03T16:08:22.423Z,31.75
2023-07-03T16:11:11.582Z,31.41
2023-07-03T16:13:59.680Z,31.13
2023-07-03T16:16:44.729Z,31.37
2023-07-03T16:19:29.489Z,31.93
2023-07-03T16:22:14.139Z,32.16
2023-07-03T16:24:59.033Z,32.33
2023-07-03T16:27:45.923Z,31.86
2023-07-03T16:30:30.698Z,32.00
2023-07-03T16:33:15.686Z,31.68
2023-07-03T16:36:06.520Z,31.35
2023-07-03T16:38:51.225Z,30.85
2023-07-03T16:41:38.911Z,31.07
2023-07-03T16:44:23.906Z,30.94
2023-07-03T16:47:08.977Z,30.71
2023-07-03T16:49:54.032Z,30.81
2023-07-03T16:52:39.056Z,30.54
2023-07-03T16:55:23.672Z,30.41
2023-07-03T16:58:08.332Z,30.53
2023-07-03T17:00:55.235Z,30.59
2023-07-03T17:03:40.447Z,30.56
2023-07-03T17:06:30.922Z,30.43
2023-07-03T17:09:18.840Z,30.53
2023-07-03T17:12:03.611Z,30.64
2023-07-03T17:14:48.393Z,30.68
2023-07-03T17:17:33.488Z,30.77
2023-07-03T17:20:19.636Z,30.58
2023-07-03T17:23:05.063Z,30.49
2023-07-03T17:25:50.353Z,30.30
2023-07-03T17:28:35.521Z,30.15
2023-07-03T17:31:24.219Z,29.79
2023-07-03T17:34:08.921Z,29.27
2023-07-03T17:36:53.691Z,28.21
2023-07-03T17:39:38.938Z,27.12
2023-07-03T17:42:26.321Z,26.24
2023-07-03T17:45:11.337Z,25.52
2023-07-03T17:47:56.681Z,25.11
2023-07-03T17:50:41.775Z,24.99
2023-07-03T17:53:26.854Z,24.67
2023-07-03T17:56:11.809Z,24.16
2023-07-03T17:58:56.340Z,23.65
2023-07-03T18:01:41.433Z,23.16
2023-07-03T18:04:26.577Z,22.69
2023-07-03T18:07:13.046Z,22.26
2023-07-03T18:09:58.233Z,21.90
2023-07-03T18:12:43.008Z,21.57
2023-07-03T18:15:39.150Z,21.24
2023-07-03T18:18:28.836Z,20.92
2023-07-03T18:21:13.860Z,20.69
2023-07-03T18:23:59.672Z,20.51
2023-07-03T18:26:44.449Z,20.31
2023-07-03T18:29:29.162Z,20.14
2023-07-03T18:32:14.076Z,19.95
2023-07-03T18:34:58.935Z,19.81
2023-07-03T18:37:44.422Z,19.63
2023-07-03T18:40:29.558Z,19.50
2023-07-03T18:43:14.584Z,19.37
2023-07-03T18:45:59.721Z,19.27
2023-07-03T18:48:44.564Z,19.12
2023-07-03T18:51:29.531Z,18.99
2023-07-03T18:54:14.413Z,18.84
2023-07-03T18:57:00.296Z,18.72
2023-07-03T18:59:46.614Z,18.63
2023-07-03T19:02:31.679Z,18.50
2023-07-03T19:05:16.987Z,18.42
2023-07-03T19:08:01.992Z,18.35
2023-07-03T19:10:46.764Z,18.30
2023-07-03T19:13:33.109Z,18.22
2023-07-03T19:16:18.304Z,18.18
2023-07-03T19:19:03.564Z,18.12
2023-07-03T19:21:48.218Z,18.06
2023-07-03T19:24:33.902Z,17.99
2023-07-03T19:27:18.260Z,17.93
2023-07-03T19:30:04.337Z,17.87
2023-07-03T19:32:48.902Z,17.78
2023-07-03T19:35:35.074Z,17.69
2023-07-03T19:38:20.040Z,17.64
2023-07-03T19:41:05.048Z,17.64
2023-07-03T19:43:49.674Z,17.62
2023-07-03T19:46:34.927Z,17.59
2023-07-03T19:49:20.187Z,17.55
2023-07-03T19:52:05.464Z,17.47
2023-07-03T19:54:50.389Z,17.39
2023-07-03T19:57:36.048Z,17.32
2023-07-03T20:00:21.586Z,17.26
2023-07-03T20:03:07.251Z,17.19
2023-07-03T20:05:52.250Z,17.12
2023-07-03T20:08:41.029Z,17.07
2023-07-03T20:11:25.876Z,17.05
2023-07-03T20:14:10.586Z,17.02
2023-07-03T20:16:55.389Z,16.98
2023-07-03T20:19:40.381Z,16.92
2023-07-03T20:22:25.164Z,16.88
2023-07-03T20:25:10.705Z,16.85
2023-07-03T20:27:55.679Z,16.82
2023-07-03T20:30:46.614Z,16.84
2023-07-03T20:33:33.280Z,16.81
2023-07-03T20:36:18.986Z,16.79
2023-07-03T20:39:05.203Z,16.78
2023-07-03T20:41:50.154Z,16.75
2023-07-03T20:44:35.042Z,16.71
2023-07-03T20:47:20.714Z,16.70
2023-07-03T20:50:06.762Z,16.66
2023-07-03T20:52:54.400Z,16.63
2023-07-03T20:55:43.808Z,16.61
2023-07-03T20:58:28.968Z,16.55
2023-07-03T21:01:16.654Z,16.49
2023-07-03T21:04:05.090Z,16.42
2023-07-03T21:06:50.310Z,16.35
2023-07-03T21:09:35.140Z,16.31
2023-07-03T21:12:19.878Z,16.27
2023-07-03T21:15:05.706Z,16.27
2023-07-03T21:17:58.381Z,16.23
2023-07-03T21:20:43.225Z,16.19
2023-07-03T21:23:27.946Z,16.15
2023-07-03T21:26:15.553Z,16.13
2023-07-03T21:29:00.648Z,16.10
2023-07-03T21:31:45.478Z,16.09
2023-07-03T21:34:30.475Z,16.05
2023-07-03T21:37:15.513Z,16.03
2023-07-03T21:40:00.448Z,15.99
2023-07-03T21:42:45.615Z,15.96
2023-07-03T21:45:30.179Z,15.93
2023-07-03T21:48:15.439Z,15.89
2023-07-03T21:51:00.255Z,15.87
2023-07-03T21:53:48.924Z,15.85
2023-07-03T21:56:33.697Z,15.79
2023-07-03T21:59:18.822Z,15.76
2023-07-03T22:02:04.251Z,15.73
2023-07-03T22:04:49.030Z,15.70
2023-07-03T22:07:34.251Z,15.64
2023-07-03T22:10:19.266Z,15.61
2023-07-03T22:13:05.579Z,15.57
2023-07-03T22:15:51.226Z,15.56
2023-07-03T22:18:36.129Z,15.53
2023-07-03T22:21:21.186Z,15.49
2023-07-03T22:24:06.156Z,15.44
2023-07-03T22:26:51.002Z,15.41
2023-07-03T22:29:37.096Z,15.37
2023-07-03T22:32:21.953Z,15.35
2023-07-03T22:35:07.513Z,15.33
2023-07-03T22:37:53.950Z,15.31
2023-07-03T22:40:40.066Z,15.28
2023-07-03T22:43:24.678Z,15.26
2023-07-03T22:46:09.844Z,15.26
2023-07-03T22:48:54.511Z,15.23
2023-07-03T22:51:40.370Z,15.22
2023-07-03T22:54:25.152Z,15.19
2023-07-03T22:57:09.936Z,15.20
2023-07-03T22:59:55.255Z,15.18
2023-07-03T23:02:40.566Z,15.17
2023-07-03T23:05:25.423Z,15.14
2023-07-03T23:08:11.854Z,15.13
2023-07-03T23:10:57.304Z,15.09
2023-07-03T23:13:42.454Z,15.04
2023-07-03T23:16:29.061Z,15.02
2023-07-03T23:19:13.824Z,14.98
2023-07-03T23:21:58.862Z,14.96
2023-07-03T23:24:45.388Z,14.92
2023-07-03T23:27:30.371Z,14.90
2023-07-03T23:30:15.249Z,14.87
2023-07-03T23:33:00.441Z,14.86
2023-07-03T23:35:45.302Z,14.85
2023-07-03T23:38:30.214Z,14.82
2023-07-03T23:41:16.241Z,14.80
2023-07-03T23:44:01.764Z,14.76
2023-07-03T23:46:46.423Z,14.72
2023-07-03T23:49:31.292Z,14.66
2023-07-03T23:52:16.496Z,14.64
2023-07-03T23:55:01.469Z,14.60
2023-07-03T23:57:46.156Z,14.56
